Time;durP1;ratioP1;P1;durP2;ratioP2;P2;SDS_P1;SDS_P2;PMS_P1;PMS_P2;Temp;Humidity;BMP_temperature;BMP_pressure;BME280_temperature;BME280_humidity;BME280_pressure;Samples;Min_cycle;Max_cycle;Signal;HPM_P1;HPM_P2
2022/10/04 00:01:12;;;;;;;16.15;7.43;;;;;;;10.78;100.00;101357.09;8293811;28;20092;-51
2022/10/04 00:05:17;;;;;;;19.42;7.05;;;;;;;10.73;100.00;101367.44;8294057;28;20068;-51
2022/10/04 00:09:23;;;;;;;10.75;6.60;;;;;;;10.70;100.00;101359.56;8294730;28;20042;-52
2022/10/04 00:13:26;;;;;;;16.27;7.85;;;;;;;10.62;100.00;101357.47;8293717;28;20045;-53
2022/10/04 00:17:30;;;;;;;10.02;6.80;;;;;;;10.59;100.00;101368.53;8285759;28;20037;-51
2022/10/04 00:21:55;;;;;;;13.48;8.35;;;;;;;10.48;100.00;101370.31;8295098;28;20125;-51
2022/10/04 00:26:00;;;;;;;11.38;7.57;;;;;;;10.43;100.00;101367.13;8293166;28;20512;-54
2022/10/04 00:38:28;;;;;;;13.40;8.07;;;;;;;10.43;100.00;101340.09;8381908;27;20944;-51
2022/10/04 00:42:58;;;;;;;17.10;7.68;;;;;;;10.49;100.00;101340.47;8389367;28;20036;-50
2022/10/04 00:47:02;;;;;;;13.98;7.78;;;;;;;10.53;100.00;101336.56;8351522;28;20415;-50
2022/10/04 00:51:27;;;;;;;15.40;7.97;;;;;;;10.58;100.00;101334.31;8344560;28;20037;-52
2022/10/04 00:55:36;;;;;;;14.60;7.30;;;;;;;10.59;100.00;101336.06;8380665;28;20465;-52
2022/10/04 00:59:43;;;;;;;14.90;7.28;;;;;;;10.62;100.00;101330.41;8380993;28;20035;-52
2022/10/04 01:03:44;;;;;;;11.38;7.03;;;;;;;10.63;100.00;101342.94;8385560;28;20036;-54
2022/10/04 01:07:52;;;;;;;14.15;6.68;;;;;;;10.66;100.00;101348.13;8384984;28;20032;-51
2022/10/04 01:12:19;;;;;;;14.55;7.50;;;;;;;10.74;100.00;101340.25;8384713;28;20111;-50
2022/10/04 01:16:29;;;;;;;13.60;7.03;;;;;;;10.77;100.00;101340.00;8380778;28;20044;-50
2022/10/04 01:20:39;;;;;;;11.52;6.30;;;;;;;10.81;100.00;101340.63;8370469;28;20035;-52
2022/10/04 01:24:42;;;;;;;16.27;6.25;;;;;;;10.77;100.00;101334.59;8384652;28;20128;-54
2022/10/04 01:28:43;;;;;;;11.50;7.00;;;;;;;10.79;100.00;101329.94;8380614;28;20041;-51
2022/10/04 01:32:44;;;;;;;13.43;7.07;;;;;;;10.73;100.00;101324.16;8380442;28;20105;-52
2022/10/04 01:36:46;;;;;;;13.55;5.63;;;;;;;10.78;100.00;101325.50;8383254;28;20055;-51
2022/10/04 01:40:52;;;;;;;11.85;6.47;;;;;;;10.74;100.00;101326.72;8379481;28;20032;-51
2022/10/04 01:45:02;;;;;;;12.10;6.32;;;;;;;10.71;100.00;101321.59;8380044;28;20406;-52
2022/10/04 01:49:10;;;;;;;10.38;6.78;;;;;;;10.72;100.00;101315.19;8366501;28;20041;-53
2022/10/04 01:53:20;;;;;;;16.45;7.07;;;;;;;10.72;100.00;101312.47;8362150;28;20116;-52
2022/10/04 01:57:26;;;;;;;13.32;7.15;;;;;;;10.66;100.00;101318.38;8360566;28;20045;-54
2022/10/04 02:01:34;;;;;;;11.15;6.85;;;;;;;10.64;100.00;101311.38;8348311;28;20090;-54
2022/10/04 02:05:39;;;;;;;16.17;7.82;;;;;;;10.61;100.00;101312.44;8360927;28;20033;-54
2022/10/04 02:09:43;;;;;;;12.68;7.53;;;;;;;10.58;100.00;101322.66;8351451;28;20041;-50
2022/10/04 02:13:47;;;;;;;19.23;8.05;;;;;;;10.48;100.00;101306.31;8360895;28;20953;-53
2022/10/04 02:17:48;;;;;;;14.50;7.57;;;;;;;10.42;100.00;101304.06;8366464;28;20033;-50
2022/10/04 02:21:51;;;;;;;13.05;7.85;;;;;;;10.36;100.00;101292.88;8360547;28;20037;-52
2022/10/04 02:25:51;;;;;;;15.77;7.85;;;;;;;10.36;100.00;101285.63;8360495;28;20059;-50
2022/10/04 02:30:00;;;;;;;21.38;8.80;;;;;;;10.26;100.00;101289.19;8360729;28;20033;-53
2022/10/04 02:34:01;;;;;;;11.63;8.38;;;;;;;10.25;100.00;101291.03;8355807;28;20040;-52
2022/10/04 02:38:11;;;;;;;17.90;8.70;;;;;;;10.24;100.00;101283.91;8359050;28;20037;-51
2022/10/04 02:42:35;;;;;;;11.68;7.63;;;;;;;10.22;100.00;101271.50;8355948;28;20391;-50
2022/10/04 02:46:56;;;;;;;16.33;8.52;;;;;;;10.17;100.00;101269.16;8354944;28;20068;-53
2022/10/04 02:51:05;;;;;;;17.80;8.18;;;;;;;10.11;100.00;101258.81;8360202;28;20573;-50
2022/10/04 02:55:18;;;;;;;12.45;7.10;;;;;;;10.12;100.00;101265.09;8363592;28;20040;-54
2022/10/04 02:59:20;;;;;;;9.37;7.17;;;;;;;10.08;100.00;101256.34;8354961;28;20037;-53
2022/10/04 03:03:27;;;;;;;15.98;7.80;;;;;;;10.10;100.00;101256.22;8374713;28;20510;-52
2022/10/04 03:07:31;;;;;;;14.27;7.80;;;;;;;10.10;100.00;101250.84;8356912;28;20033;-50
2022/10/04 03:11:36;;;;;;;15.02;8.27;;;;;;;10.11;100.00;101242.59;8359361;28;20040;-52
2022/10/04 03:15:37;;;;;;;12.10;7.57;;;;;;;10.10;100.00;101246.31;8357914;28;20217;-51
2022/10/04 03:19:38;;;;;;;14.65;8.13;;;;;;;10.07;100.00;101241.13;8358183;28;20037;-50
2022/10/04 03:23:40;;;;;;;15.23;7.63;;;;;;;10.03;100.00;101223.38;8356479;28;20040;-53
2022/10/04 03:27:42;;;;;;;16.13;7.05;;;;;;;9.95;100.00;101223.16;8347509;28;20073;-51
2022/10/04 03:31:47;;;;;;;17.17;7.90;;;;;;;9.87;100.00;101222.88;8358244;28;20044;-50
2022/10/04 03:35:51;;;;;;;;;;;;;;;9.85;100.00;101214.00;8357877;28;20098;-53
2022/10/04 03:39:54;;;;;;;15.93;7.78;;;;;;;9.83;100.00;101206.03;8354489;28;19917;-51
2022/10/04 03:43:55;;;;;;;11.40;7.18;;;;;;;9.82;100.00;101211.56;8345677;28;20044;-50
2022/10/04 03:48:04;;;;;;;14.27;6.68;;;;;;;9.72;100.00;101211.41;8358253;28;20052;-53
2022/10/04 03:52:07;;;;;;;20.10;9.07;;;;;;;9.74;100.00;101222.09;8353999;28;20041;-50
2022/10/04 03:56:12;;;;;;;15.07;8.10;;;;;;;9.71;100.00;101212.41;8357216;28;20349;-51
2022/10/04 04:00:16;;;;;;;14.65;8.00;;;;;;;9.72;100.00;101215.94;8348538;28;20120;-50
2022/10/04 04:08:43;;;;;;;17.02;7.82;;;;;;;9.54;100.00;101214.66;8282286;28;20391;-52
2022/10/04 04:12:55;;;;;;;13.13;7.40;;;;;;;9.53;100.00;101213.81;8256769;28;20043;-49
2022/10/04 04:17:27;;;;;;;12.68;7.53;;;;;;;9.54;100.00;101203.84;8250570;28;20117;-52
2022/10/04 04:21:29;;;;;;;14.77;7.07;;;;;;;9.56;100.00;101199.22;8248300;28;20118;-51
2022/10/04 04:25:33;;;;;;;12.68;7.13;;;;;;;9.58;100.00;101218.88;8252594;28;20043;-49
2022/10/04 04:29:46;;;;;;;11.48;7.18;;;;;;;9.53;100.00;101210.25;8267102;28;20439;-53
2022/10/04 04:33:59;;;;;;;14.88;8.32;;;;;;;9.45;100.00;101199.16;8250900;28;20035;-49
2022/10/04 04:38:21;;;;;;;11.65;7.03;;;;;;;9.37;100.00;101193.50;8268617;28;20133;-49
2022/10/04 04:42:33;;;;;;;15.60;6.68;;;;;;;9.41;100.00;101193.16;8257738;28;20053;-51
2022/10/04 04:46:37;;;;;;;14.88;6.78;;;;;;;9.42;100.00;101202.09;8270223;28;20038;-49
2022/10/04 04:50:39;;;;;;;14.57;8.20;;;;;;;9.38;100.00;101208.72;8263498;28;20046;-52
2022/10/04 04:54:40;;;;;;;15.98;7.18;;;;;;;9.33;100.00;101210.91;8280241;28;20038;-53
2022/10/04 04:58:45;;;;;;;10.43;6.60;;;;;;;9.36;100.00;101199.84;8286218;28;20124;-53
2022/10/04 05:02:53;;;;;;;12.10;6.65;;;;;;;9.39;100.00;101194.22;8292338;28;20504;-51
2022/10/04 05:07:05;;;;;;;12.35;7.35;;;;;;;9.36;100.00;101179.16;8266670;28;20405;-51
2022/10/04 05:15:18;;;;;;;17.52;7.03;;;;;;;9.42;100.00;101184.06;8285869;28;20901;-52
2022/10/04 05:19:27;;;;;;;17.45;7.22;;;;;;;9.43;100.00;101184.94;8284700;28;20411;-49
2022/10/04 05:23:29;;;;;;;12.73;6.88;;;;;;;9.46;100.00;101182.00;8282200;28;20495;-52
2022/10/04 05:27:36;;;;;;;13.20;7.03;;;;;;;9.48;100.00;101178.22;8285884;28;20084;-49
2022/10/04 05:31:46;;;;;;;13.15;7.45;;;;;;;9.48;100.00;101180.91;8287799;28;20117;-49
2022/10/04 05:36:17;;;;;;;11.43;7.20;;;;;;;9.48;100.00;101183.59;8287074;28;20069;-49
2022/10/04 05:44:50;;;;;;;13.75;7.40;;;;;;;9.50;100.00;101181.66;8298908;28;20750;-49
2022/10/04 05:48:54;;;;;;;13.50;6.82;;;;;;;9.49;100.00;101168.28;8287119;28;20049;-49
2022/10/04 05:53:23;;;;;;;14.43;6.93;;;;;;;9.47;100.00;101170.22;8288393;28;20495;-52
2022/10/04 05:57:36;;;;;;;13.40;7.05;;;;;;;9.46;100.00;101165.81;8315930;28;20042;-51
2022/10/04 06:02:07;;;;;;;15.55;6.40;;;;;;;9.48;100.00;101167.41;8282178;28;20037;-50
2022/10/04 06:06:21;;;;;;;10.98;6.03;;;;;;;9.48;100.00;101171.94;8286844;28;20464;-52
2022/10/04 06:10:42;;;;;;;10.57;6.47;;;;;;;9.48;100.00;101170.13;8287178;28;20046;-53
2022/10/04 06:15:07;;;;;;;14.45;6.13;;;;;;;9.50;100.00;101183.50;8287279;28;20281;-53
2022/10/04 06:19:27;;;;;;;;;;;;;;;9.53;100.00;101180.56;8287789;28;20507;-51
2022/10/04 06:23:33;;;;;;;12.07;6.35;;;;;;;9.55;100.00;101173.22;8287274;28;19940;-49
2022/10/04 06:32:27;;;;;;;11.80;5.97;;;;;;;9.61;100.00;101178.13;8400648;27;20456;-52
2022/10/04 06:41:14;;;;;;;9.90;6.45;;;;;;;9.68;100.00;101173.97;8305763;28;20426;-49
2022/10/04 06:50:21;;;;;;;13.60;6.55;;;;;;;9.89;100.00;101166.91;8384759;28;20344;-49
2022/10/04 06:54:49;;;;;;;12.23;6.03;;;;;;;10.06;100.00;101166.41;8400714;28;20040;-53
2022/10/04 06:59:29;;;;;;;10.30;5.85;;;;;;;10.17;100.00;101169.16;8350091;28;20063;-52
2022/10/04 07:03:39;;;;;;;16.73;6.80;;;;;;;10.42;100.00;101176.16;8347739;28;20041;-51
2022/10/04 07:07:47;;;;;;;9.57;6.35;;;;;;;10.71;100.00;101174.66;8354817;28;20033;-49
2022/10/04 07:12:04;;;;;;;10.05;6.07;;;;;;;11.12;100.00;101189.22;8368501;28;20047;-51
2022/10/04 07:20:30;;;;;;;9.15;5.60;;;;;;;11.84;100.00;101177.56;8385978;27;20387;-52
2022/10/04 07:25:04;;;;;;;9.10;5.28;;;;;;;11.87;100.00;101174.59;8367681;28;20033;-50
2022/10/04 07:29:22;;;;;;;8.00;5.68;;;;;;;12.07;100.00;101178.28;8377102;27;20045;-50
2022/10/04 07:33:27;;;;;;;12.73;5.72;;;;;;;12.01;100.00;101184.22;8360364;28;20068;-50
2022/10/04 07:37:32;;;;;;;14.93;6.50;;;;;;;12.06;100.00;101175.69;8371155;28;20126;-52
2022/10/04 07:41:45;;;;;;;10.52;5.78;;;;;;;11.96;100.00;101180.22;8370680;28;20048;-51
2022/10/04 07:45:46;;;;;;;15.90;7.22;;;;;;;11.93;100.00;101170.50;8348124;28;20045;-51
2022/10/04 07:49:49;;;;;;;10.85;6.13;;;;;;;11.98;100.00;101183.66;8370977;28;20247;-51
2022/10/04 07:53:58;;;;;;;7.72;5.68;;;;;;;12.03;100.00;101186.81;8391087;27;20090;-49
2022/10/04 07:58:24;;;;;;;14.68;6.47;;;;;;;12.07;100.00;101182.84;8380062;28;20049;-50
2022/10/04 08:02:41;;;;;;;14.40;6.75;;;;;;;12.24;100.00;101184.94;8380138;28;20406;-49
2022/10/04 08:06:55;;;;;;;10.32;5.97;;;;;;;12.40;100.00;101185.28;8362070;28;20042;-51
2022/10/04 08:11:36;;;;;;;11.38;6.30;;;;;;;12.66;100.00;101191.97;8370885;28;20044;-50
2022/10/04 08:15:39;;;;;;;12.13;6.10;;;;;;;12.84;100.00;101185.72;8380001;28;20047;-50
2022/10/04 08:20:20;;;;;;;12.25;6.13;;;;;;;12.97;100.00;101190.91;8381993;28;20041;-52
2022/10/04 08:24:34;;;;;;;14.27;6.90;;;;;;;13.22;99.68;101174.13;8358421;28;20052;-50
2022/10/04 08:29:46;;;;;;;17.20;6.28;;;;;;;13.44;98.54;101168.41;8344817;28;20391;-49
2022/10/04 08:38:29;;;;;;;13.98;5.20;;;;;;;13.93;94.63;101170.94;8362295;27;20459;-49
2022/10/04 08:43:10;;;;;;;10.02;5.97;;;;;;;14.19;94.56;101165.72;8347941;28;20037;-53
2022/10/04 08:47:43;;;;;;;12.23;5.93;;;;;;;14.23;93.45;101162.59;8342781;28;20099;-50
2022/10/04 08:52:12;;;;;;;11.55;6.10;;;;;;;14.42;92.51;101167.97;8348835;28;20638;-50
2022/10/04 08:56:53;;;;;;;12.10;6.30;;;;;;;14.80;92.59;101166.94;8343629;28;20052;-52
2022/10/04 09:01:00;;;;;;;18.50;6.18;;;;;;;14.98;89.35;101170.56;8348166;28;20453;-49
2022/10/04 09:05:41;;;;;;;13.55;5.80;;;;;;;16.04;84.85;101171.41;8342803;28;20041;-53
2022/10/04 09:10:07;;;;;;;8.95;5.13;;;;;;;18.41;77.04;101172.41;8343189;28;20430;-50
2022/10/04 09:14:37;;;;;;;10.73;4.90;;;;;;;19.92;70.05;101154.41;8310797;28;20034;-49
2022/10/04 09:19:18;;;;;;;8.35;4.45;;;;;;;20.36;68.67;101158.97;8317126;28;20184;-53
2022/10/04 09:23:49;;;;;;;7.47;4.18;;;;;;;21.17;65.36;101154.19;8316437;28;20065;-51
2022/10/04 09:28:29;;;;;;;9.07;3.97;;;;;;;21.08;65.18;101149.00;8318911;28;20057;-52
2022/10/04 09:33:10;;;;;;;8.05;3.75;;;;;;;21.34;63.59;101143.81;8354908;28;20048;-50
2022/10/04 09:37:28;;;;;;;7.55;4.18;;;;;;;21.85;62.83;101133.53;8315540;28;20199;-49
2022/10/04 09:41:40;;;;;;;6.75;3.53;;;;;;;21.54;64.62;101139.38;8321840;28;20038;-49
2022/10/04 09:46:06;;;;;;;7.53;3.92;;;;;;;21.82;62.67;101137.56;8309227;28;20046;-49
2022/10/04 09:50:40;;;;;;;9.48;3.53;;;;;;;22.48;60.65;101145.25;8286140;28;20077;-49
2022/10/04 09:55:08;;;;;;;13.10;4.00;;;;;;;22.66;60.48;101137.34;8284025;28;20132;-49
2022/10/04 09:59:52;;;;;;;9.98;3.67;;;;;;;22.53;61.05;101131.75;8297179;28;20042;-52
2022/10/04 10:04:33;;;;;;;10.38;3.55;;;;;;;23.25;59.64;101125.75;8288410;28;20038;-50
2022/10/04 10:13:42;;;;;;;5.82;4.03;;;;;;;23.88;57.61;101117.75;8322209;27;20432;-52
2022/10/04 10:18:14;;;;;;;6.72;3.45;;;;;;;23.81;57.04;101127.09;8312437;28;20045;-52
2022/10/04 10:27:08;;;;;;;7.07;3.38;;;;;;;23.97;56.74;101110.16;8407354;27;20390;-51
2022/10/04 10:31:36;;;;;;;6.45;3.28;;;;;;;24.41;57.40;101107.53;8359166;28;20084;-50
2022/10/04 10:36:00;;;;;;;8.48;3.50;;;;;;;24.47;55.57;101112.22;8363435;28;20072;-53
2022/10/04 10:44:33;;;;;;;8.88;3.42;;;;;;;25.85;52.24;101119.66;8387962;27;20431;-51
2022/10/04 10:48:51;;;;;;;6.65;2.95;;;;;;;25.45;53.69;101118.22;8386911;28;20052;-53
2022/10/04 10:53:28;;;;;;;6.95;2.88;;;;;;;25.76;53.09;101121.00;8380778;28;20033;-50
2022/10/04 10:58:09;;;;;;;4.55;3.17;;;;;;;25.82;51.91;101125.63;8402373;28;20045;-51
2022/10/04 11:02:39;;;;;;;5.15;3.00;;;;;;;25.18;53.35;101116.66;8413876;28;20553;-50
2022/10/04 11:07:09;;;;;;;7.07;3.22;;;;;;;25.23;52.94;101096.59;8411620;28;20055;-50
2022/10/04 11:16:06;;;;;;;7.07;3.15;;;;;;;25.84;52.81;101083.84;8289274;28;20914;-49
2022/10/04 11:20:46;;;;;;;8.80;2.33;;;;;;;25.97;52.43;101078.19;8253451;28;20093;-53
2022/10/04 11:29:38;;;;;;;7.05;2.50;;;;;;;26.43;50.95;101076.69;8391901;27;20368;-50
2022/10/04 11:34:18;;;;;;;4.68;2.70;;;;;;;26.05;52.10;101062.16;8375312;28;20503;-53
2022/10/04 11:38:49;;;;;;;4.78;2.20;;;;;;;26.48;51.03;101054.66;8370013;28;20098;-53
2022/10/04 11:43:04;;;;;;;7.35;2.30;;;;;;;27.14;50.76;101048.28;8380093;28;20033;-52
2022/10/04 12:01:03;;;;;;;4.65;2.30;;;;;;;27.69;49.66;101030.34;8351767;27;20741;-50
2022/10/04 12:05:33;;;;;;;5.28;2.05;;;;;;;27.27;49.35;101039.78;8365817;28;20364;-49
2022/10/04 12:09:48;;;;;;;5.32;2.33;;;;;;;27.44;48.50;101038.03;8393782;28;20040;-50
2022/10/04 12:14:29;;;;;;;5.30;2.33;;;;;;;27.53;48.38;101044.94;8379101;28;20410;-52
2022/10/04 12:18:59;;;;;;;7.40;2.13;;;;;;;27.40;48.89;101043.19;8379892;28;20470;-51
2022/10/04 12:23:32;;;;;;;6.60;2.15;;;;;;;27.54;48.28;101038.28;8384424;28;20119;-50
2022/10/04 12:28:13;;;;;;;8.55;2.30;;;;;;;28.18;48.03;101024.34;8384165;28;20421;-52
2022/10/04 12:32:18;;;;;;;4.07;1.88;;;;;;;28.63;48.19;101019.78;8378701;28;20033;-50
2022/10/04 12:36:45;;;;;;;6.05;2.17;;;;;;;27.75;47.75;101015.47;8382450;28;20033;-50
2022/10/04 12:50:10;;;;;;;8.80;2.88;;;;;;;23.30;58.51;100990.75;8386586;27;20909;-49
2022/10/04 12:54:34;;;;;;;8.75;2.35;;;;;;;22.27;58.87;100982.78;8377915;28;20044;-51
2022/10/04 13:07:43;;;;;;;6.30;1.95;;;;;;;21.71;60.55;100970.13;8389459;27;20365;-49
2022/10/04 13:12:13;;;;;;;5.22;2.45;;;;;;;21.35;60.18;100963.94;8379800;28;20466;-50
2022/10/04 13:16:34;;;;;;;4.85;1.88;;;;;;;21.15;61.27;100973.91;8380946;28;20095;-50
2022/10/04 13:21:03;;;;;;;7.15;2.20;;;;;;;21.06;60.87;100969.59;8382319;28;20037;-50
2022/10/04 13:25:44;;;;;;;6.20;2.35;;;;;;;21.24;62.16;100961.72;8377120;28;20040;-52
2022/10/04 13:30:26;;;;;;;8.15;2.30;;;;;;;21.62;60.00;100957.56;8374551;28;20044;-50
2022/10/04 13:34:52;;;;;;;5.63;1.98;;;;;;;21.70;57.99;100954.66;8378343;28;20051;-50
2022/10/04 13:39:15;;;;;;;3.75;1.98;;;;;;;21.26;58.54;100943.13;8375469;28;20048;-50
2022/10/04 13:43:55;;;;;;;5.35;2.42;;;;;;;21.28;61.52;100935.50;8379538;28;20048;-50
2022/10/04 13:48:36;;;;;;;4.40;1.73;;;;;;;21.44;60.52;100940.75;8379435;28;20079;-50
2022/10/04 13:57:20;;;;;;;5.65;2.90;;;;;;;21.40;65.02;100933.91;8327842;27;20397;-50
2022/10/04 14:06:33;;;;;;;8.52;2.70;;;;;;;21.21;63.63;100918.13;8383369;27;20398;-51
2022/10/04 14:11:05;;;;;;;5.40;2.55;;;;;;;21.14;64.53;100911.72;8352576;28;20043;-49
2022/10/04 14:15:45;;;;;;;11.80;3.15;;;;;;;21.16;64.39;100899.47;8372082;28;20048;-52
2022/10/04 14:20:17;;;;;;;5.40;2.42;;;;;;;21.29;64.92;100895.97;8380101;28;20063;-51
2022/10/04 14:43:00;;;;;;;10.15;3.90;;;;;;;21.00;67.79;100898.91;8310871;28;20393;-50
2022/10/04 14:47:41;;;;;;;10.30;4.03;;;;;;;20.85;67.08;100890.72;8295938;28;20041;-53
2022/10/04 14:56:42;;;;;;;6.93;3.72;;;;;;;20.86;67.16;100883.31;8393628;27;20398;-51
2022/10/04 15:01:13;;;;;;;6.07;3.42;;;;;;;20.81;67.04;100878.41;8394277;27;20042;-50
2022/10/04 15:10:29;;;;;;;7.30;3.45;;;;;;;20.84;67.53;100877.16;8417121;27;20817;-53
2022/10/04 15:14:39;;;;;;;9.02;3.30;;;;;;;20.77;68.22;100876.25;8408764;28;20551;-52
2022/10/04 15:18:47;;;;;;;7.57;2.95;;;;;;;20.73;67.86;100870.31;8377042;28;20068;-51
2022/10/04 15:22:53;;;;;;;8.02;3.28;;;;;;;20.72;68.80;100871.34;8375674;28;20047;-52
2022/10/04 15:27:34;;;;;;;4.78;2.80;;;;;;;20.72;68.63;100867.75;8380339;28;20044;-53
2022/10/04 15:32:15;;;;;;;6.43;3.33;;;;;;;20.69;68.65;100876.38;8378403;28;20402;-53
2022/10/04 15:36:45;;;;;;;8.65;3.08;;;;;;;20.71;69.25;100872.38;8376895;28;20080;-53
2022/10/04 15:41:16;;;;;;;6.78;3.08;;;;;;;20.73;70.68;100875.81;8378755;28;20029;-52
2022/10/04 15:45:30;;;;;;;5.38;3.08;;;;;;;20.61;74.46;100879.25;8376416;28;20128;-54
2022/10/04 15:49:37;;;;;;;;;;;;;;;20.50;73.63;100877.91;8362777;28;20041;-52
2022/10/04 15:53:53;;;;;;;8.05;3.17;;;;;;;20.46;73.17;100884.00;8380129;28;20417;-54
2022/10/04 15:58:23;;;;;;;6.70;3.60;;;;;;;20.39;75.57;100888.53;8366527;28;20036;-51
2022/10/04 16:02:47;;;;;;;5.63;3.05;;;;;;;20.28;76.58;100880.84;8369986;28;20398;-54
2022/10/04 16:06:57;;;;;;;;;;;;;;;20.03;78.45;100877.53;8362888;28;20071;-53
2022/10/04 16:11:32;;;;;;;7.07;3.42;;;;;;;20.04;76.52;100878.41;8371128;28;19917;-51
2022/10/04 16:15:37;;;;;;;9.00;3.72;;;;;;;20.00;77.64;100882.59;8376601;28;20040;-53
2022/10/04 16:24:27;;;;;;;5.70;2.92;;;;;;;19.76;79.22;100880.16;8283042;27;20378;-51
2022/10/04 16:29:08;;;;;;;5.75;3.15;;;;;;;19.46;81.60;100876.56;8280717;28;20573;-50
2022/10/04 16:33:25;;;;;;;9.25;3.13;;;;;;;19.50;79.88;100886.13;8270678;28;20038;-53
2022/10/04 16:37:38;;;;;;;8.82;3.63;;;;;;;19.27;83.44;100899.03;8272439;28;20499;-50
2022/10/04 16:41:44;;;;;;;8.70;3.30;;;;;;;18.83;87.81;100893.47;8279987;28;20043;-54
2022/10/04 16:46:24;;;;;;;5.10;3.25;;;;;;;18.68;86.10;100889.81;8280261;28;20065;-52
2022/10/04 16:51:05;;;;;;;42.83;10.63;;;;;;;18.05;92.42;100885.63;8275797;28;20033;-51
2022/10/04 17:04:29;;;;;;;10.48;5.18;;;;;;;17.80;94.53;100887.59;8391166;27;20387;-50
2022/10/04 17:08:53;;;;;;;71.45;20.35;;;;;;;17.09;100.00;100889.50;8374678;28;20131;-53
2022/10/04 17:13:10;;;;;;;34.00;11.48;;;;;;;17.02;100.00;100896.72;8379191;28;20044;-51
2022/10/04 17:17:51;;;;;;;42.22;22.63;;;;;;;16.95;100.00;100904.72;8384320;27;20402;-49
2022/10/04 17:22:09;;;;;;;30.50;17.25;;;;;;;16.79;100.00;100909.34;8394869;27;20028;-51
2022/10/04 17:26:22;;;;;;;38.67;22.65;;;;;;;16.96;99.30;100906.41;8377865;28;20044;-49
2022/10/04 17:30:26;;;;;;;28.02;17.20;;;;;;;17.02;99.01;100905.72;8383428;28;20079;-52
2022/10/04 17:34:45;;;;;;;30.42;17.60;;;;;;;16.61;98.69;100914.09;8386091;28;20131;-49
2022/10/04 17:43:29;;;;;;;13.10;6.85;;;;;;;16.31;100.00;100920.19;8409204;27;1193651;-50
2022/10/04 17:56:35;;;;;;;8.95;6.68;;;;;;;16.31;100.00;100925.66;8433555;28;20044;-49
2022/10/04 18:01:05;;;;;;;14.60;6.63;;;;;;;15.80;100.00;100921.25;8443478;27;20050;-49
2022/10/04 18:05:20;;;;;;;11.35;6.63;;;;;;;15.42;100.00;100925.31;8446872;27;20060;-49
2022/10/04 18:14:01;;;;;;;11.50;7.15;;;;;;;15.39;100.00;100930.22;8378950;27;20390;-49
2022/10/04 18:18:14;;;;;;;12.32;6.53;;;;;;;15.53;100.00;100944.06;8407899;28;20555;-49
2022/10/04 18:22:19;;;;;;;9.90;7.15;;;;;;;15.58;100.00;100947.19;8391903;28;20569;-49
2022/10/04 18:26:21;;;;;;;16.77;8.48;;;;;;;15.77;100.00;100950.69;8378139;28;20036;-50
2022/10/04 18:30:22;;;;;;;12.00;6.68;;;;;;;15.41;100.00;100961.72;8380873;28;20033;-50
2022/10/04 18:34:28;;;;;;;11.68;6.20;;;;;;;15.40;100.00;100948.28;8377585;28;20050;-52
2022/10/04 18:38:32;;;;;;;10.07;4.95;;;;;;;15.78;93.68;100942.34;8375385;28;20095;-50
2022/10/04 18:42:35;;;;;;;10.98;4.45;;;;;;;15.97;91.13;100941.22;8420912;28;20035;-51
2022/10/04 18:46:39;;;;;;;10.13;4.17;;;;;;;16.11;89.36;100946.06;8403003;28;20174;-49
2022/10/04 18:50:43;;;;;;;12.68;5.18;;;;;;;15.94;91.40;100963.34;8399768;28;20398;-49
2022/10/04 18:55:12;;;;;;;13.40;6.15;;;;;;;15.18;97.47;100968.69;8394946;28;20505;-49
2022/10/04 19:04:20;;;;;;;13.35;5.97;;;;;;;14.74;99.44;100983.31;8373075;27;20422;-53
2022/10/04 19:08:38;;;;;;;10.80;6.32;;;;;;;14.81;99.78;100989.84;8390782;27;20032;-49
2022/10/04 19:13:13;;;;;;;7.65;5.68;;;;;;;15.00;98.11;100994.22;8389857;27;20562;-52
2022/10/04 19:17:43;;;;;;;11.88;5.75;;;;;;;14.32;100.00;101003.94;8389847;27;20608;-49
2022/10/04 19:21:57;;;;;;;13.20;6.95;;;;;;;14.15;100.00;100991.13;8365049;28;20094;-50
2022/10/04 19:26:10;;;;;;;11.27;6.70;;;;;;;14.23;100.00;100987.63;8353570;28;20047;-49
2022/10/04 19:30:21;;;;;;;11.70;6.00;;;;;;;14.61;100.00;100982.81;8352383;28;20453;-48
2022/10/04 19:34:52;;;;;;;9.73;5.35;;;;;;;14.91;96.54;100968.81;8371451;28;20041;-51
2022/10/04 19:39:02;;;;;;;7.80;4.97;;;;;;;15.05;95.12;100960.09;8359366;28;20032;-49
2022/10/04 19:43:09;;;;;;;8.13;4.40;;;;;;;15.09;95.06;100955.16;8354893;28;20567;-52
2022/10/04 19:47:33;;;;;;;7.88;4.60;;;;;;;15.03;95.42;100963.97;8355222;28;20037;-49
2022/10/04 19:51:49;;;;;;;6.22;4.55;;;;;;;15.00;95.27;100967.88;8387066;28;21049;-50
2022/10/04 19:55:59;;;;;;;8.07;4.78;;;;;;;14.83;96.09;100965.19;8395322;28;20071;-49
2022/10/04 20:00:00;;;;;;;9.18;4.43;;;;;;;14.46;98.88;100962.63;8384275;28;20410;-49
2022/10/04 20:04:42;;;;;;;9.85;5.50;;;;;;;14.25;100.00;100964.78;8386275;28;20043;-51
2022/10/04 20:09:10;;;;;;;9.18;5.35;;;;;;;14.28;100.00;100969.03;8378033;28;20052;-50
2022/10/04 20:13:25;;;;;;;9.10;5.00;;;;;;;14.21;100.00;100973.34;8399428;28;20121;-49
2022/10/04 20:17:31;;;;;;;9.05;5.00;;;;;;;14.10;100.00;100966.25;8415772;28;20047;-49
2022/10/04 20:21:32;;;;;;;7.70;4.72;;;;;;;13.71;100.00;100964.75;8391410;28;20079;-49
2022/10/04 20:30:03;;;;;;;11.18;5.32;;;;;;;13.43;100.00;100968.44;8297047;28;20400;-49
2022/10/04 20:38:58;;;;;;;6.00;5.07;;;;;;;13.21;100.00;100976.94;8377478;27;20875;-50
2022/10/04 20:47:48;;;;;;;8.93;5.72;;;;;;;13.35;100.00;100974.59;8384048;27;20356;-49
2022/10/04 20:51:49;;;;;;;10.60;6.30;;;;;;;13.29;100.00;100968.88;8368970;28;20109;-51
2022/10/04 20:56:06;;;;;;;12.13;5.65;;;;;;;13.29;100.00;100972.47;8375757;28;20037;-51
2022/10/04 21:00:17;;;;;;;11.55;5.68;;;;;;;13.20;100.00;100964.34;8366685;28;20037;-52
2022/10/04 21:04:41;;;;;;;8.63;5.60;;;;;;;13.09;100.00;100961.81;8349802;28;20086;-54
2022/10/04 21:08:41;;;;;;;12.75;6.10;;;;;;;13.09;100.00;100967.22;8376133;28;20171;-52
2022/10/04 21:12:42;;;;;;;9.57;6.20;;;;;;;13.02;100.00;100966.09;8355501;28;20033;-48
2022/10/04 21:16:46;;;;;;;11.85;6.72;;;;;;;12.75;100.00;100968.66;8349477;28;20080;-52
2022/10/04 21:20:49;;;;;;;8.93;6.17;;;;;;;12.58;100.00;100962.09;8390510;28;20069;-50
2022/10/04 21:29:02;;;;;;;8.45;6.82;;;;;;;12.83;100.00;100966.06;8296917;28;20403;-49
2022/10/04 21:33:03;;;;;;;13.27;7.97;;;;;;;12.87;100.00;100971.06;8282464;28;20527;-49
2022/10/04 21:37:04;;;;;;;18.50;8.27;;;;;;;12.97;100.00;100973.78;8283468;28;20129;-52
2022/10/04 21:41:05;;;;;;;11.45;6.60;;;;;;;12.97;100.00;100974.66;8282212;28;20038;-49
2022/10/04 21:45:05;;;;;;;11.32;6.55;;;;;;;12.94;100.00;100966.81;8282654;28;20034;-48
2022/10/04 21:49:06;;;;;;;13.35;6.53;;;;;;;12.91;100.00;100968.94;8283228;28;20419;-51
2022/10/04 21:53:07;;;;;;;8.82;6.53;;;;;;;12.50;100.00;100961.09;8285949;28;20049;-51
2022/10/04 21:57:07;;;;;;;16.25;7.47;;;;;;;12.19;100.00;100965.75;8285545;28;20030;-50
2022/10/04 22:01:08;;;;;;;13.75;8.23;;;;;;;11.95;100.00;100950.88;8279210;28;20042;-50
2022/10/04 22:05:09;;;;;;;13.98;7.95;;;;;;;12.24;100.00;100959.91;8283076;28;20086;-51
2022/10/04 22:09:10;;;;;;;13.95;7.63;;;;;;;12.31;100.00;100969.19;8272017;28;20065;-48
2022/10/04 22:13:10;;;;;;;13.65;8.10;;;;;;;12.25;100.00;100964.34;8282690;28;20044;-49
2022/10/04 22:17:11;;;;;;;9.85;7.20;;;;;;;12.26;100.00;100974.22;8267948;28;20031;-51
2022/10/04 22:21:12;;;;;;;11.68;7.15;;;;;;;12.39;100.00;100966.66;8268197;28;20056;-49
2022/10/04 22:25:16;;;;;;;12.57;7.50;;;;;;;12.02;100.00;100957.47;8274080;28;20035;-48
2022/10/04 22:29:17;;;;;;;11.73;7.40;;;;;;;11.78;100.00;100955.94;8269629;28;20050;-50
2022/10/04 22:33:29;;;;;;;16.65;8.52;;;;;;;11.81;100.00;100950.25;8264797;28;20050;-49
2022/10/04 22:37:30;;;;;;;16.50;7.93;;;;;;;11.84;100.00;100949.97;8278733;28;20478;-49
2022/10/04 22:41:55;;;;;;;15.52;7.78;;;;;;;12.11;100.00;100959.34;8233897;28;20065;-53
2022/10/04 22:45:55;;;;;;;11.52;8.00;;;;;;;12.17;100.00;100956.06;8263460;28;20078;-53